Flight Track Log - Related Links

Times and Time Zones

All times are in EDT time to prevent confusion due to time zone crossing. See the ASQ6041 flight status page for this flight to view local times or setup timezone preferences in your user account.

Time Position Orientation Groundspeed Altitude Reporting Facility
EDT Latitude Longitude Course Direction KTS MPH feet Rate Location/Type
Mon 01:47:20 PM 39.8833 -104.6000 90° East 177 204 7,000  Level Denver TRACON
Mon 01:48:20 PM 39.8833 -104.5167 90° East 240 276 8,500 1,700 Climbing Denver TRACON
Mon 01:49:20 PM 39.8833 -104.4167 90° East 305 351 10,400 2,191 Climbing Denver TRACON
Mon 01:50:15 PM 39.8833 -104.3167 90° East 306 352 12,700 2,115 Climbing Denver TRACON
Mon 01:51:22 PM 39.8783 -104.1922 93° East 323 372 14,700 1,843 Climbing Denver Center
Mon 01:52:22 PM 39.8797 -104.0550 89° East 350 403 16,600 1,742 Climbing Denver Center
Mon 01:53:26 PM 39.8814 -103.9203 89° East 368 423 18,300 1,714 Climbing Denver Center
Mon 01:54:28 PM 39.9022 -103.7750 79° East 376 433 20,200 1,756 Climbing Denver Center
Mon 01:55:29 PM 39.9264 -103.6400 77° East 375 432 21,900 1,680 Climbing Denver Center
Mon 01:56:33 PM 39.9483 -103.5003 78° East 387 445 23,700 1,632 Climbing Denver Center
Mon 01:57:34 PM 39.9717 -103.3608 78° East 391 450 25,300 1,415 Climbing Denver Center
Mon 01:58:36 PM 39.9936 -103.2186 79° East 398 458 26,600 810 Climbing Denver Center
Mon 01:59:40 PM 40.0244 -103.0367 77° East 428 493 27,000 192 Climbing Denver Center
Mon 02:00:41 PM 40.0508 -102.8706 78° East 465 535 27,000  Level Denver Center
Mon 02:01:46 PM 40.0775 -102.6997 78° East 481 554 27,000  Level Denver Center
Mon 02:02:47 PM 40.1078 -102.5028 79° East 497 572 27,000  Level Denver Center
Mon 02:03:48 PM 40.1356 -102.3325 78° East 500 575 27,000  Level Denver Center
Mon 02:04:51 PM 40.1661 -102.1308 79° East 505 581 27,000  Level Denver Center
Mon 02:05:52 PM 40.1914 -101.9600 79° East 504 580 27,000  Level Denver Center
Mon 02:06:56 PM 40.2206 -101.7619 79° East 501 577 27,000  Level Denver Center
Mon 02:07:56 PM 40.2467 -101.5922 79° East 501 577 27,000  Level Denver Center
Mon 02:08:59 PM 40.2717 -101.4219 79° East 499 574 27,000  Level Denver Center
Mon 02:10:00 PM 40.3003 -101.2233 79° East 498 573 27,000  Level Denver Center
Mon 02:11:04 PM 40.3247 -101.0528 79° East 500 575 27,000  Level Denver Center
Mon 02:12:06 PM 40.3517 -100.8542 80° East 500 575 27,000  Level Denver Center
Mon 02:13:07 PM 40.3756 -100.6839 80° East 500 575 27,000  Level Denver Center
Mon 02:14:10 PM 40.4039 -100.4836 79° East 500 575 27,000  Level Denver Center
Mon 02:15:11 PM 40.4308 -100.2833 80° East 501 577 27,000  Level Denver Center
Mon 02:16:12 PM 40.4544 -100.1119 80° East 501 577 27,000  Level Denver Center
Mon 02:17:14 PM 40.4806 -99.9103 80° East 503 579 27,000  Level Denver Center
Mon 02:18:18 PM 40.5025 -99.7422 80° East 506 582 27,000  Level Denver Center
Mon 02:19:31 PM 40.5311 -99.5261 80° East 506 582 27,000  Level Denver Center
Mon 02:20:34 PM 40.5539 -99.3442 81° East 505 581 27,000  Level Denver Center
Mon 02:21:48 PM 40.5808 -99.1272 81° East 505 581 27,000  Level Denver Center
Mon 02:22:50 PM 40.6078 -98.9100 81° East 505 581 27,000  Level Denver Center
Mon 02:23:29 PM 40.6206 -98.8017 81° East 504 580 27,000 -59 Level Minneapolis Center
Mon 02:24:31 PM 40.6433 -98.6214 80° East 504 580 26,900 -1,113 Descending Minneapolis Center
Mon 02:25:33 PM 40.6692 -98.4033 81° East 505 581 24,700 -2,081 Descending Minneapolis Center
Mon 02:26:35 PM 40.6894 -98.2319 81° East 490 564 22,600 -2,195 Descending Minneapolis Center
Mon 02:27:36 PM 40.7092 -98.0658 81° East 477 549 20,200 -2,293 Descending Minneapolis Center
Mon 02:28:38 PM 40.7269 -97.9119 81° East 453 521 17,900 -2,226 Descending Minneapolis Center
Mon 02:29:40 PM 40.7428 -97.7592 82° East 435 501 15,600 -2,226 Descending Minneapolis Center
Mon 02:30:42 PM 40.7606 -97.6078 81° East 426 490 13,300 -2,545 Descending Minneapolis Center
Mon 02:30:46 PM 40.7414 -97.5639 120° Southeast 418 481 12,800 -2,032 Descending Minneapolis Center
Mon 02:31:44 PM 40.7803 -97.4322 69° East 414 476 11,200 -1,347 Descending Minneapolis Center
Mon 02:32:24 PM 40.7675 -97.3469 101° East 356 410 10,600 -1,065 Descending Minneapolis Center
Mon 02:32:46 PM 40.7922 -97.3075 50° Northeast 373 429 10,100 -1,429 Descending Minneapolis Center
Mon 02:33:06 PM 40.7794 -97.2581 109° East 314 361 9,600 -1,279 Descending Minneapolis Center
Mon 02:33:47 PM 40.8036 -97.1936 64° Northeast 338 389 8,800 -1,377 Descending Minneapolis Center
Mon 02:34:07 PM 40.7925 -97.1522 110° East 288 331 8,200 -1,548 Descending Minneapolis Center
Mon 02:34:49 PM 40.8217 -97.0917 58° Northeast 313 360 7,200 -1,636 Descending Minneapolis Center
Mon 02:35:02 PM 40.8164 -97.0592 102° East 280 322 6,700 -1,742 Descending Minneapolis Center
Mon 02:35:51 PM 40.8458 -96.9947 59° Northeast 294 338 5,400 -1,869 Descending Minneapolis Center
Mon 02:36:03 PM 40.8400 -96.9578 102° East 276 318 4,800 -1,161 Descending Minneapolis Center
Mon 02:36:53 PM 40.8772 -96.9086 45° Northeast 275 316 4,200 -985 Descending Minneapolis Center
Mon 02:37:10 PM 40.8858 -96.8817 67° East 214 246 3,700 -677 Descending Minneapolis Center
Mon 02:37:55 PM 40.9231 -96.8633 20° North 232 267 3,500 -400 Descending Minneapolis Center
Mon 02:38:10 PM 40.9211 -96.8422 97° East 144 166 3,300 -581 Descending Minneapolis Center
Mon 02:38:57 PM 40.9350 -96.8019 65° Northeast 183 211 2,900 -537 Descending Minneapolis Center
Mon 02:39:17 PM 40.9175 -96.7792 135° Southeast 153 176 2,700 -677 Descending Minneapolis Center
Mon 02:39:59 PM 40.9092 -96.7614 122° Southeast 163 188 2,200 -787 Descending Minneapolis Center
Mon 02:40:18 PM 40.8828 -96.7581 175° South 147 169 1,900 -290 Descending Minneapolis Center
Mon 02:41:01 PM 40.8703 -96.7625 195° South 158 182 1,900  Level Minneapolis Center
Mon 02:43:00 PM 40.8500 -96.7500 66° East  Level FlightAware Approximate

Login

Don't have an account? Register now (free) for customized features, flight alerts, and more!